createdAt,value
2023-02-08T00:01:26.905Z,7.80
2023-02-08T00:03:56.382Z,7.70
2023-02-08T00:06:24.787Z,8.17
2023-02-08T00:08:53.236Z,7.63
2023-02-08T00:11:23.079Z,7.40
2023-02-08T00:13:51.589Z,7.37
2023-02-08T00:16:20.195Z,7.50
2023-02-08T00:18:48.527Z,7.00
2023-02-08T00:21:19.085Z,7.77
2023-02-08T00:23:47.579Z,8.27
2023-02-08T00:26:16.944Z,7.60
2023-02-08T00:28:46.606Z,7.57
2023-02-08T00:31:15.015Z,7.93
2023-02-08T00:33:43.411Z,7.47
2023-02-08T00:36:12.831Z,7.37
2023-02-08T00:38:41.206Z,7.57
2023-02-08T00:41:09.566Z,7.93
2023-02-08T00:43:37.875Z,8.00
2023-02-08T00:46:12.623Z,6.60
2023-02-08T00:48:41.134Z,7.10
2023-02-08T00:51:12.993Z,7.83
2023-02-08T00:53:43.198Z,6.80
2023-02-08T00:56:15.810Z,7.03
2023-02-08T00:58:44.526Z,7.80
2023-02-08T01:01:14.622Z,6.80
2023-02-08T01:03:43.927Z,7.67
2023-02-08T01:06:15.442Z,7.37
2023-02-08T01:08:43.869Z,6.97
2023-02-08T01:11:15.240Z,7.40
2023-02-08T01:13:43.657Z,6.63
2023-02-08T01:16:15.667Z,7.03
2023-02-08T01:18:45.636Z,7.53
2023-02-08T01:21:16.682Z,7.03
2023-02-08T01:23:46.655Z,6.97
2023-02-08T01:26:16.134Z,7.30
2023-02-08T01:28:45.051Z,7.40
2023-02-08T01:31:16.823Z,7.80
2023-02-08T01:33:45.233Z,7.77
2023-02-08T01:36:14.131Z,7.30
2023-02-08T01:38:42.471Z,6.87
2023-02-08T01:41:17.473Z,7.10
2023-02-08T01:44:08.103Z,7.57
2023-02-08T01:46:39.949Z,7.80
2023-02-08T01:49:11.946Z,7.80
2023-02-08T01:51:46.475Z,6.90
2023-02-08T01:54:17.459Z,7.67
2023-02-08T01:56:46.668Z,8.60
2023-02-08T01:59:18.960Z,7.80
2023-02-08T02:01:51.998Z,7.63
2023-02-08T02:04:21.102Z,8.70
2023-02-08T02:06:53.842Z,8.10
2023-02-08T02:09:29.522Z,8.70
2023-02-08T02:11:58.942Z,8.27
2023-02-08T02:14:27.572Z,8.63
2023-02-08T02:17:00.241Z,8.00
2023-02-08T02:19:38.486Z,9.90
2023-02-08T02:22:24.974Z,8.77
2023-02-08T02:25:19.285Z,8.03
2023-02-08T02:28:28.963Z,7.80
2023-02-08T02:31:24.734Z,7.23
2023-02-08T02:34:05.729Z,7.83
2023-02-08T02:36:45.266Z,6.77
2023-02-08T02:39:22.027Z,7.10
2023-02-08T02:42:16.081Z,6.87
2023-02-08T02:44:55.833Z,7.13
2023-02-08T02:47:33.716Z,7.83
2023-02-08T02:50:07.841Z,7.53
2023-02-08T02:52:41.224Z,7.40
2023-02-08T02:55:14.534Z,7.13
2023-02-08T02:57:48.162Z,7.87
2023-02-08T03:00:22.656Z,7.17
2023-02-08T03:02:52.870Z,7.87
2023-02-08T03:05:21.175Z,7.07
2023-02-08T03:08:08.461Z,7.27
2023-02-08T03:10:55.275Z,7.17
2023-02-08T03:13:33.133Z,6.93
2023-02-08T03:16:08.135Z,7.40
2023-02-08T03:18:47.874Z,6.60
2023-02-08T03:21:21.853Z,7.53
2023-02-08T03:23:58.564Z,6.67
2023-02-08T03:26:35.949Z,6.13
2023-02-08T03:29:08.956Z,7.70
2023-02-08T03:31:44.586Z,6.60
2023-02-08T03:34:20.878Z,6.50
2023-02-08T03:36:51.776Z,7.57
2023-02-08T03:39:26.385Z,6.77
2023-02-08T03:41:59.871Z,6.87
2023-02-08T03:44:34.557Z,7.57
2023-02-08T03:47:08.412Z,7.73
2023-02-08T03:49:40.189Z,7.30
2023-02-08T03:52:11.300Z,6.70
2023-02-08T03:54:43.821Z,6.57
2023-02-08T03:57:18.453Z,6.67
2023-02-08T03:59:52.707Z,6.80
2023-02-08T04:02:23.868Z,7.40
2023-02-08T04:04:55.153Z,7.17
2023-02-08T04:07:23.664Z,7.77
2023-02-08T04:09:52.054Z,7.27
2023-02-08T04:12:20.467Z,6.60
2023-02-08T04:14:48.788Z,6.63
2023-02-08T04:17:17.283Z,7.00
2023-02-08T04:19:45.605Z,6.10
2023-02-08T04:22:17.572Z,6.67
2023-02-08T04:24:45.892Z,6.83
2023-02-08T04:27:14.271Z,6.60
2023-02-08T04:29:42.724Z,6.47
2023-02-08T04:32:11.765Z,6.90
2023-02-08T04:34:40.205Z,6.17
2023-02-08T04:37:09.180Z,6.60
2023-02-08T04:39:39.267Z,6.90
2023-02-08T04:42:07.774Z,6.20
2023-02-08T04:44:36.087Z,7.00
2023-02-08T04:47:04.496Z,6.10
2023-02-08T04:49:32.788Z,7.30
2023-02-08T04:52:01.209Z,7.10
2023-02-08T04:54:29.524Z,7.40
2023-02-08T04:56:59.236Z,6.60
2023-02-08T04:59:27.718Z,6.53
2023-02-08T05:01:56.124Z,7.00
2023-02-08T05:04:24.461Z,6.47
2023-02-08T05:06:52.741Z,7.80
2023-02-08T05:09:21.205Z,6.40
2023-02-08T05:11:49.601Z,6.57
2023-02-08T05:14:19.351Z,6.70
2023-02-08T05:16:47.669Z,6.70
2023-02-08T05:19:15.985Z,7.40
2023-02-08T05:21:44.374Z,6.97
2023-02-08T05:24:12.955Z,6.53
2023-02-08T05:26:41.728Z,6.87
2023-02-08T05:29:10.677Z,8.00
2023-02-08T05:31:40.729Z,7.30
2023-02-08T05:34:09.126Z,7.27
2023-02-08T05:36:37.547Z,7.20
2023-02-08T05:39:06.244Z,8.57
2023-02-08T05:41:34.594Z,7.73
2023-02-08T05:44:02.922Z,8.80
2023-02-08T05:46:37.105Z,8.37
2023-02-08T05:49:08.181Z,8.77
2023-02-08T05:51:36.545Z,10.23
2023-02-08T05:54:04.905Z,7.90
2023-02-08T05:56:33.420Z,7.27
2023-02-08T05:59:02.285Z,8.00
2023-02-08T06:01:31.720Z,8.63
2023-02-08T06:04:00.659Z,8.80
2023-02-08T06:06:30.406Z,7.93
2023-02-08T06:08:58.756Z,7.87
2023-02-08T06:11:28.307Z,8.13
2023-02-08T06:13:57.004Z,7.53
2023-02-08T06:16:25.375Z,7.77
2023-02-08T06:18:53.733Z,7.83
2023-02-08T06:21:24.397Z,7.37
2023-02-08T06:23:54.293Z,7.60
2023-02-08T06:26:22.581Z,6.90
2023-02-08T06:28:50.876Z,7.37
2023-02-08T06:31:19.286Z,6.83
2023-02-08T06:33:47.638Z,6.80
2023-02-08T06:36:15.970Z,7.93
2023-02-08T06:38:44.324Z,7.37
2023-02-08T06:41:14.182Z,6.47
2023-02-08T06:43:42.936Z,6.63
2023-02-08T06:46:11.561Z,10.57
2023-02-08T06:48:39.951Z,8.00
2023-02-08T06:51:08.271Z,7.10
2023-02-08T06:53:36.649Z,7.17
2023-02-08T06:56:05.313Z,9.57
2023-02-08T06:58:34.957Z,8.03
2023-02-08T07:01:03.384Z,8.50
2023-02-08T07:03:31.722Z,7.57
2023-02-08T07:06:05.054Z,7.83
2023-02-08T07:08:34.639Z,8.40
2023-02-08T07:11:08.092Z,9.80
2023-02-08T07:13:38.803Z,10.20
2023-02-08T07:16:08.392Z,11.07
2023-02-08T07:18:37.462Z,10.13
2023-02-08T07:21:06.737Z,10.60
2023-02-08T07:23:35.105Z,10.07
2023-02-08T07:26:05.458Z,10.77
2023-02-08T07:28:34.201Z,10.57
2023-02-08T07:31:07.845Z,9.37
2023-02-08T07:33:36.242Z,8.57
2023-02-08T07:36:05.359Z,9.27
2023-02-08T07:38:34.620Z,9.30
2023-02-08T07:41:03.918Z,10.37
2023-02-08T07:43:34.531Z,8.37
2023-02-08T07:46:08.605Z,8.40
2023-02-08T07:48:40.023Z,9.83
2023-02-08T07:51:09.885Z,8.10
2023-02-08T07:53:38.625Z,9.00
2023-02-08T07:56:07.358Z,8.67
2023-02-08T07:58:36.082Z,8.37
2023-02-08T08:01:16.135Z,9.43
2023-02-08T08:03:51.704Z,8.37
2023-02-08T08:06:20.234Z,8.60
2023-02-08T08:08:48.550Z,8.73
2023-02-08T08:11:17.993Z,17.47
2023-02-08T08:13:46.678Z,11.40
2023-02-08T08:16:15.647Z,10.27
2023-02-08T08:18:44.161Z,11.87
2023-02-08T08:21:15.019Z,10.50
2023-02-08T08:23:46.974Z,9.57
2023-02-08T08:26:17.687Z,10.77
2023-02-08T08:28:47.304Z,11.77
2023-02-08T08:31:17.778Z,11.00
2023-02-08T08:33:46.740Z,10.50
2023-02-08T08:36:16.713Z,10.87
2023-02-08T08:38:45.027Z,11.03
2023-02-08T08:41:15.316Z,10.77
2023-02-08T08:43:43.854Z,10.73
2023-02-08T08:46:12.580Z,7.63
2023-02-08T08:48:41.020Z,8.70
2023-02-08T08:51:09.386Z,8.30
2023-02-08T08:53:39.116Z,8.20
2023-02-08T08:56:08.164Z,8.23
2023-02-08T08:58:36.654Z,8.80
2023-02-08T09:01:05.139Z,7.07
2023-02-08T09:03:33.701Z,8.10
2023-02-08T09:06:02.154Z,6.80
2023-02-08T09:08:30.521Z,9.97
2023-02-08T09:11:05.844Z,9.60
2023-02-08T09:13:34.441Z,8.90
2023-02-08T09:16:09.376Z,10.33
2023-02-08T09:18:37.757Z,11.00
2023-02-08T09:21:10.311Z,9.80
2023-02-08T09:23:38.983Z,15.67
2023-02-08T09:26:14.992Z,9.03
2023-02-08T09:28:43.431Z,14.03
2023-02-08T09:31:13.192Z,13.47
2023-02-08T09:33:42.014Z,6.33
2023-02-08T09:36:11.149Z,6.30
2023-02-08T09:38:40.370Z,6.97
2023-02-08T09:41:26.668Z,18.40
2023-02-08T09:44:06.534Z,12.53
2023-02-08T09:46:39.954Z,9.30
2023-02-08T09:49:16.508Z,7.00
2023-02-08T09:51:49.593Z,7.70
2023-02-08T09:54:21.889Z,6.33
2023-02-08T09:56:53.427Z,6.57
2023-02-08T09:59:26.823Z,7.53
2023-02-08T10:02:01.570Z,8.43
2023-02-08T10:04:39.233Z,7.47
2023-02-08T10:07:07.672Z,8.00
2023-02-08T10:09:35.993Z,9.57
2023-02-08T10:12:19.859Z,11.07
2023-02-08T10:15:03.381Z,9.80
2023-02-08T10:17:47.055Z,10.70
2023-02-08T10:20:26.845Z,10.37
2023-02-08T10:23:04.326Z,8.03
2023-02-08T10:25:48.048Z,8.80
2023-02-08T10:28:40.941Z,11.23
2023-02-08T10:31:17.867Z,7.33
2023-02-08T10:33:54.135Z,6.50
2023-02-08T10:36:27.145Z,7.87
2023-02-08T10:38:57.424Z,7.10
2023-02-08T10:41:32.422Z,7.87
2023-02-08T10:44:14.900Z,6.90
2023-02-08T10:46:48.877Z,7.27
2023-02-08T10:49:23.861Z,7.20
2023-02-08T10:51:52.869Z,7.07
2023-02-08T10:54:21.227Z,7.30
2023-02-08T10:56:54.015Z,7.80
2023-02-08T10:59:27.142Z,7.80
2023-02-08T11:01:57.413Z,7.53
2023-02-08T11:04:26.199Z,7.40
2023-02-08T11:06:54.950Z,6.93
2023-02-08T11:09:26.606Z,6.60
2023-02-08T11:11:56.501Z,6.87
2023-02-08T11:14:45.425Z,6.80
2023-02-08T11:17:28.128Z,7.57
2023-02-08T11:19:57.587Z,7.80
2023-02-08T11:22:28.937Z,8.17
2023-02-08T11:25:00.146Z,8.57
2023-02-08T11:27:34.092Z,8.30
2023-02-08T11:30:23.309Z,8.50
2023-02-08T11:33:18.436Z,7.20
2023-02-08T11:35:56.874Z,7.80
2023-02-08T11:38:28.254Z,7.23
2023-02-08T11:40:58.804Z,7.83
2023-02-08T11:43:29.825Z,7.00
2023-02-08T11:46:01.857Z,8.13
2023-02-08T11:48:42.011Z,8.50
2023-02-08T11:51:13.714Z,10.37
2023-02-08T11:53:47.401Z,8.73
2023-02-08T11:56:20.806Z,10.17
2023-02-08T11:59:03.537Z,8.73
2023-02-08T12:01:35.449Z,7.50
2023-02-08T12:04:06.537Z,8.20
2023-02-08T12:06:57.400Z,8.07
2023-02-08T12:09:43.774Z,8.70
2023-02-08T12:12:25.073Z,8.37
2023-02-08T12:15:05.884Z,8.10
2023-02-08T12:17:51.137Z,8.73
2023-02-08T12:20:39.134Z,8.93
2023-02-08T12:23:23.522Z,8.60
2023-02-08T12:26:02.311Z,8.90
2023-02-08T12:28:43.492Z,10.80
2023-02-08T12:31:20.406Z,8.80
2023-02-08T12:34:02.958Z,9.03
2023-02-08T12:36:49.289Z,8.37
2023-02-08T12:39:52.014Z,9.33
2023-02-08T12:42:42.773Z,9.07
2023-02-08T12:45:58.480Z,9.17
2023-02-08T12:48:41.551Z,8.97
2023-02-08T12:51:21.819Z,11.17
2023-02-08T12:53:55.099Z,11.20
2023-02-08T12:56:28.494Z,9.53
2023-02-08T12:59:12.823Z,10.07
2023-02-08T13:01:45.887Z,9.60
2023-02-08T13:04:19.496Z,9.77
2023-02-08T13:06:53.863Z,9.60
2023-02-08T13:09:38.079Z,8.87
2023-02-08T13:12:15.541Z,9.70
2023-02-08T13:14:47.709Z,10.50
2023-02-08T13:17:20.645Z,9.93
2023-02-08T13:20:00.903Z,9.63
2023-02-08T13:22:40.938Z,10.27
2023-02-08T13:25:17.838Z,9.80
2023-02-08T13:27:46.580Z,10.10
2023-02-08T13:30:20.128Z,10.03
2023-02-08T13:32:51.734Z,11.83
2023-02-08T13:35:25.092Z,9.93
2023-02-08T13:38:01.799Z,9.63
2023-02-08T13:40:33.017Z,9.93
2023-02-08T13:43:34.941Z,10.43
2023-02-08T13:46:05.417Z,9.93
2023-02-08T13:48:45.075Z,9.17
2023-02-08T13:51:55.728Z,9.80
2023-02-08T13:54:25.641Z,9.77
2023-02-08T13:56:54.709Z,8.90
2023-02-08T13:59:33.709Z,9.60
2023-02-08T14:02:27.058Z,9.50
2023-02-08T14:05:20.505Z,9.93
2023-02-08T14:07:49.983Z,10.43
2023-02-08T14:10:37.533Z,10.40
2023-02-08T14:13:17.325Z,10.57
2023-02-08T14:15:46.198Z,13.87
2023-02-08T14:18:27.640Z,11.90
2023-02-08T14:21:04.155Z,10.73
2023-02-08T14:23:38.817Z,11.73
2023-02-08T14:26:20.775Z,11.37
2023-02-08T14:28:55.935Z,12.10
2023-02-08T14:31:38.906Z,11.33
2023-02-08T14:34:08.033Z,11.67
2023-02-08T14:36:37.425Z,11.07
2023-02-08T14:39:23.976Z,11.53
2023-02-08T14:41:57.272Z,10.23
2023-02-08T14:45:05.645Z,9.80
2023-02-08T14:48:07.955Z,9.67
2023-02-08T14:50:44.461Z,9.37
2023-02-08T14:53:24.309Z,9.77
2023-02-08T14:55:59.184Z,10.50
2023-02-08T14:58:32.114Z,9.30
2023-02-08T15:01:05.796Z,15.77
2023-02-08T15:03:36.031Z,11.50
2023-02-08T15:07:00.188Z,10.23
2023-02-08T15:09:31.346Z,9.73
2023-02-08T15:12:03.004Z,10.40
2023-02-08T15:14:36.438Z,10.17
2023-02-08T15:17:04.823Z,10.17
2023-02-08T15:19:35.792Z,10.37
2023-02-08T15:22:33.062Z,9.33
2023-02-08T15:25:05.679Z,9.90
2023-02-08T15:27:35.267Z,10.60
2023-02-08T15:30:05.607Z,9.63
2023-02-08T15:32:34.810Z,10.43
2023-02-08T15:35:05.228Z,10.00
2023-02-08T15:37:35.158Z,10.30
2023-02-08T15:40:04.883Z,9.43
2023-02-08T15:42:34.997Z,10.17
2023-02-08T15:45:05.237Z,9.93
2023-02-08T15:47:36.239Z,10.50
2023-02-08T15:50:07.827Z,8.97
2023-02-08T15:52:39.509Z,9.87
2023-02-08T15:55:08.983Z,8.83
2023-02-08T15:57:44.087Z,9.30
2023-02-08T16:00:18.918Z,8.90
2023-02-08T16:02:53.142Z,10.00
2023-02-08T16:05:24.422Z,9.00
2023-02-08T16:07:53.896Z,9.37
2023-02-08T16:10:26.712Z,10.07
2023-02-08T16:12:58.551Z,12.67
2023-02-08T16:15:45.005Z,10.60
2023-02-08T16:18:40.680Z,11.27
2023-02-08T16:21:27.915Z,8.97
2023-02-08T16:23:58.670Z,9.53
2023-02-08T16:26:29.198Z,9.83
2023-02-08T16:29:00.463Z,8.90
2023-02-08T16:31:32.873Z,10.50
2023-02-08T16:34:04.360Z,11.07
2023-02-08T16:36:36.979Z,10.17
2023-02-08T16:39:39.331Z,10.33
2023-02-08T16:42:21.259Z,10.63
2023-02-08T16:45:12.910Z,11.37
2023-02-08T16:47:44.367Z,10.83
2023-02-08T16:50:15.016Z,10.83
2023-02-08T16:52:43.627Z,10.43
2023-02-08T16:55:23.990Z,11.20
2023-02-08T16:57:53.799Z,9.50
2023-02-08T17:00:26.983Z,10.33
2023-02-08T17:02:57.312Z,8.80
2023-02-08T17:05:28.279Z,9.10
2023-02-08T17:07:57.106Z,9.80
2023-02-08T17:10:29.010Z,9.13
2023-02-08T17:13:13.437Z,10.93
2023-02-08T17:15:46.260Z,8.97
2023-02-08T17:18:16.240Z,9.33
2023-02-08T17:20:44.936Z,10.03
2023-02-08T17:23:15.476Z,9.30
2023-02-08T17:25:44.415Z,9.90
2023-02-08T17:28:18.309Z,9.63
2023-02-08T17:30:47.899Z,8.97
2023-02-08T17:33:21.138Z,9.17
2023-02-08T17:35:51.039Z,9.40
2023-02-08T17:38:20.727Z,10.30
2023-02-08T17:40:49.562Z,9.67
2023-02-08T17:43:17.902Z,12.47
2023-02-08T17:45:46.557Z,14.40
2023-02-08T17:48:15.375Z,16.53
2023-02-08T17:50:50.783Z,16.53
2023-02-08T17:53:19.930Z,13.13
2023-02-08T17:55:48.724Z,10.77
2023-02-08T17:58:17.732Z,11.33
2023-02-08T18:00:46.366Z,12.17
2023-02-08T18:03:17.226Z,15.60
2023-02-08T18:05:46.979Z,24.80
2023-02-08T18:08:17.201Z,51.17
2023-02-08T18:10:45.671Z,39.07
2023-02-08T18:13:14.101Z,29.60
2023-02-08T18:15:43.119Z,33.30
2023-02-08T18:18:11.721Z,25.40
2023-02-08T18:20:44.322Z,26.13
2023-02-08T18:23:14.700Z,22.93
2023-02-08T18:25:43.365Z,17.40
2023-02-08T18:28:15.118Z,17.63
2023-02-08T18:30:43.921Z,18.60
2023-02-08T18:33:13.652Z,18.40
2023-02-08T18:35:42.366Z,20.03
2023-02-08T18:38:10.945Z,14.00
2023-02-08T18:40:41.283Z,11.67
2023-02-08T18:43:09.608Z,10.87
2023-02-08T18:45:37.944Z,10.97
2023-02-08T18:48:06.482Z,11.33
2023-02-08T18:50:34.863Z,11.67
2023-02-08T18:53:03.459Z,11.67
2023-02-08T18:55:32.046Z,13.87
2023-02-08T18:58:01.805Z,13.70
2023-02-08T19:00:30.150Z,19.30
2023-02-08T19:02:58.634Z,12.07
2023-02-08T19:05:27.497Z,10.13
2023-02-08T19:07:55.848Z,9.97
2023-02-08T19:10:24.317Z,8.90
2023-02-08T19:12:52.924Z,12.13
2023-02-08T19:15:22.712Z,12.33
2023-02-08T19:17:51.349Z,13.03
2023-02-08T19:20:20.371Z,13.13
2023-02-08T19:22:49.087Z,15.67
2023-02-08T19:25:17.555Z,12.47
2023-02-08T19:27:49.987Z,10.00
2023-02-08T19:30:20.027Z,10.43
2023-02-08T19:32:49.761Z,33.50
2023-02-08T19:35:18.373Z,14.87
2023-02-08T19:37:50.225Z,9.33
2023-02-08T19:40:19.614Z,8.83
2023-02-08T19:42:48.947Z,9.63
2023-02-08T19:45:17.499Z,10.17
2023-02-08T19:47:51.443Z,10.17
2023-02-08T19:50:21.714Z,10.70
2023-02-08T19:52:50.122Z,10.23
2023-02-08T19:55:18.742Z,10.27
2023-02-08T19:57:47.284Z,9.73
2023-02-08T20:00:23.377Z,10.43
2023-02-08T20:02:52.712Z,10.33
2023-02-08T20:05:22.495Z,9.30
2023-02-08T20:07:50.906Z,10.37
2023-02-08T20:10:19.342Z,10.43
2023-02-08T20:12:47.864Z,9.97
2023-02-08T20:15:16.824Z,12.97
2023-02-08T20:17:45.699Z,13.00
2023-02-08T20:20:14.342Z,14.13
2023-02-08T20:22:45.910Z,11.93
2023-02-08T20:25:14.977Z,11.43
2023-02-08T20:27:43.320Z,13.23
2023-02-08T20:30:12.859Z,12.43
2023-02-08T20:32:41.514Z,12.47
2023-02-08T20:35:09.975Z,12.70
2023-02-08T20:37:38.706Z,13.23
2023-02-08T20:40:10.809Z,17.17
2023-02-08T20:42:39.676Z,14.17
2023-02-08T20:45:09.757Z,14.47
2023-02-08T20:47:46.381Z,14.10
2023-02-08T20:50:19.039Z,10.90
2023-02-08T20:52:49.110Z,11.30
2023-02-08T20:55:19.194Z,24.37
2023-02-08T20:57:47.577Z,12.23
2023-02-08T21:00:16.452Z,11.53
2023-02-08T21:02:46.145Z,10.43
2023-02-08T21:05:14.575Z,10.37
2023-02-08T21:07:43.041Z,10.73
2023-02-08T21:10:11.501Z,10.30
2023-02-08T21:12:41.222Z,10.10
2023-02-08T21:15:11.265Z,11.17
2023-02-08T21:17:41.083Z,10.63
2023-02-08T21:20:12.088Z,10.40
2023-02-08T21:22:40.540Z,10.30
2023-02-08T21:25:10.074Z,11.60
2023-02-08T21:27:38.574Z,11.33
2023-02-08T21:30:09.348Z,11.97
2023-02-08T21:32:48.551Z,12.20
2023-02-08T21:35:17.666Z,10.77
2023-02-08T21:37:46.016Z,11.87
2023-02-08T21:40:14.524Z,11.00
2023-02-08T21:42:43.653Z,12.17
2023-02-08T21:45:13.571Z,11.30
2023-02-08T21:47:42.303Z,10.30
2023-02-08T21:50:29.265Z,11.13
2023-02-08T21:53:15.418Z,11.30
2023-02-08T21:55:46.956Z,12.47
2023-02-08T21:58:15.548Z,11.40
2023-02-08T22:00:45.970Z,10.87
2023-02-08T22:03:18.731Z,11.17
2023-02-08T22:06:05.295Z,10.80
2023-02-08T22:08:33.986Z,10.10
2023-02-08T22:11:04.820Z,10.33
2023-02-08T22:13:33.823Z,12.53
2023-02-08T22:16:09.684Z,12.93
2023-02-08T22:18:41.512Z,11.27
2023-02-08T22:21:10.284Z,11.80
2023-02-08T22:23:38.906Z,12.50
2023-02-08T22:26:11.233Z,11.43
2023-02-08T22:28:39.710Z,12.20
2023-02-08T22:31:10.029Z,12.87
2023-02-08T22:33:38.801Z,12.83
2023-02-08T22:36:08.399Z,11.90
2023-02-08T22:38:37.233Z,16.03
2023-02-08T22:41:10.826Z,13.73
2023-02-08T22:43:39.809Z,14.50
2023-02-08T22:46:09.995Z,13.73
2023-02-08T22:48:38.590Z,12.03
2023-02-08T22:51:08.300Z,12.47
2023-02-08T22:53:36.879Z,11.20
2023-02-08T22:56:05.805Z,11.47
2023-02-08T22:58:35.096Z,10.40
2023-02-08T23:01:03.586Z,10.03
2023-02-08T23:03:33.306Z,10.60
2023-02-08T23:06:01.638Z,11.40
2023-02-08T23:08:30.058Z,9.87
2023-02-08T23:11:01.912Z,9.67
2023-02-08T23:13:31.135Z,9.70
2023-02-08T23:15:59.773Z,9.10
2023-02-08T23:18:28.270Z,9.17
2023-02-08T23:20:57.994Z,9.73
2023-02-08T23:23:26.362Z,8.97
2023-02-08T23:25:54.677Z,8.43
2023-02-08T23:28:23.906Z,10.43
2023-02-08T23:30:52.328Z,9.60
2023-02-08T23:33:20.660Z,9.60
2023-02-08T23:35:49.135Z,9.77
2023-02-08T23:38:18.846Z,10.23
2023-02-08T23:40:47.420Z,9.97
2023-02-08T23:43:15.887Z,8.60
2023-02-08T23:45:44.198Z,10.07
2023-02-08T23:48:12.569Z,9.13
2023-02-08T23:50:41.169Z,8.77
2023-02-08T23:53:09.489Z,9.23
2023-02-08T23:55:39.157Z,8.90
2023-02-08T23:58:07.488Z,9.00
